METAR Data
IDs: Format: Raw Decoded Include TAF

Data at: 0246 UTC 29 Nov 2020

METAR for:KSPB (Scappoose Ind Airpar, OR, US)
Text:KSPB 290207Z AUTO 29003KT 10SM OVC010 06/05 A3036 RMK AO2 T00610050
Temperature: 6.1°C ( 43°F)
Dewpoint: 5.0°C ( 41°F) [RH = 93%]
Pressure (altimeter):30.36 inches Hg (1028.2 mb)
Winds:from the WNW (290 degrees) at 3 MPH (3 knots; 1.5 m/s)
Visibility:10 or more sm (16+ km)
Ceiling:1000 feet AGL
Clouds: overcast cloud deck at 1000 feet AGL
QC Flag:automated observation with no human augmentation